Time;durP1;ratioP1;P1;durP2;ratioP2;P2;SDS_P1;SDS_P2;PMS_P1;PMS_P2;Temp;Humidity;BMP_temperature;BMP_pressure;BME280_temperature;BME280_humidity;BME280_pressure;Samples;Min_cycle;Max_cycle;Signal;HPM_P1;HPM_P2
2021/06/01 00:01:55;;;;;;;10.23;6.18;;;;;;;;;;10149310;28;20136;-69
2021/06/01 00:06:51;;;;;;;11.10;5.82;;;;;;;;;;10150603;28;20101;-67
2021/06/01 00:11:47;;;;;;;10.60;6.35;;;;;;;;;;10154757;28;20090;-70
2021/06/01 00:16:44;;;;;;;10.57;6.53;;;;;;;;;;10161151;28;20428;-65
2021/06/01 00:21:41;;;;;;;9.57;6.53;;;;;;;;;;10153609;28;20042;-65
2021/06/01 00:26:39;;;;;;;9.60;6.65;;;;;;;;;;10158234;28;20100;-66
2021/06/01 00:31:35;;;;;;;9.18;6.18;;;;;;;;;;10156188;28;20066;-69
2021/06/01 00:36:32;;;;;;;10.85;6.55;;;;;;;;;;10152393;28;20104;-67
2021/06/01 00:41:28;;;;;;;9.95;6.97;;;;;;;;;;10143007;28;20453;-68
2021/06/01 00:46:25;;;;;;;12.73;7.05;;;;;;;;;;10154219;28;20081;-66
2021/06/01 00:51:21;;;;;;;10.20;7.28;;;;;;;;;;10161841;28;20566;-66
2021/06/01 00:56:18;;;;;;;13.75;7.25;;;;;;;;;;10155233;28;20046;-64
2021/06/01 01:01:20;;;;;;;10.63;6.85;;;;;;;;;;10160320;28;20085;-64
2021/06/01 01:06:19;;;;;;;12.37;7.07;;;;;;;;;;10144736;28;20453;-65
2021/06/01 01:11:19;;;;;;;10.98;7.10;;;;;;;;;;10150205;28;20499;-65
2021/06/01 01:16:16;;;;;;;11.35;7.70;;;;;;;;;;10142049;28;20046;-70
2021/06/01 01:21:12;;;;;;;14.35;8.90;;;;;;;;;;10148515;28;20039;-70
2021/06/01 01:26:23;;;;;;;13.73;7.55;;;;;;;;;;10159049;28;20050;-69
2021/06/01 01:31:34;;;;;;;9.55;6.55;;;;;;;;;;10159980;28;20061;-69
2021/06/01 01:36:31;;;;;;;11.32;7.18;;;;;;;;;;10163886;28;20059;-64
2021/06/01 01:41:27;;;;;;;10.13;7.32;;;;;;;;;;10159982;28;20042;-70
2021/06/01 01:46:35;;;;;;;10.10;6.55;;;;;;;;;;10161942;28;20101;-70
2021/06/01 01:51:33;;;;;;;12.57;8.07;;;;;;;;;;10170909;28;20403;-70
2021/06/01 01:56:35;;;;;;;10.13;7.03;;;;;;;;;;10158065;28;20142;-67
2021/06/01 02:01:32;;;;;;;9.95;6.82;;;;;;;;;;10164243;28;20129;-70
2021/06/01 02:06:29;;;;;;;9.98;6.97;;;;;;;;;;10165110;28;20078;-70
2021/06/01 02:11:26;;;;;;;9.52;6.15;;;;;;;;;;10158412;28;20488;-73
2021/06/01 02:16:22;;;;;;;9.32;6.75;;;;;;;;;;10156754;28;20046;-70
2021/06/01 02:22:17;;;;;;;12.45;7.40;;;;;;;;;;10158053;28;20041;-65
2021/06/01 02:27:02;;;;;;;10.60;7.30;;;;;;;;;;10148668;28;20085;-65
2021/06/01 02:32:00;;;;;;;11.67;7.30;;;;;;;;;;10162522;28;20060;-66
2021/06/01 02:36:56;;;;;;;8.52;6.63;;;;;;;;;;10165596;28;20585;-69
2021/06/01 02:41:53;;;;;;;9.80;7.05;;;;;;;;;;10158994;28;20468;-65
2021/06/01 02:46:50;;;;;;;11.18;7.10;;;;;;;;;;10157005;28;20072;-65
2021/06/01 02:51:47;;;;;;;11.50;7.90;;;;;;;;;;10159895;28;20045;-65
2021/06/01 02:56:43;;;;;;;10.73;6.78;;;;;;;;;;10158853;28;20051;-67
2021/06/01 03:01:39;;;;;;;12.30;7.45;;;;;;;;;;10171223;28;20567;-70
2021/06/01 03:06:36;;;;;;;10.85;6.97;;;;;;;;;;10154197;28;20133;-70
2021/06/01 03:11:33;;;;;;;11.18;7.15;;;;;;;;;;10151688;28;20044;-70
2021/06/01 03:16:29;;;;;;;10.55;7.55;;;;;;;;;;10163786;28;20116;-69
2021/06/01 03:21:26;;;;;;;13.30;7.03;;;;;;;;;;10148980;28;20055;-69
2021/06/01 03:26:22;;;;;;;9.68;6.85;;;;;;;;;;10151208;28;20096;-71
2021/06/01 03:31:19;;;;;;;9.82;7.47;;;;;;;;;;10159068;28;20078;-71
2021/06/01 03:36:15;;;;;;;11.05;6.88;;;;;;;;;;10156402;28;20136;-71
2021/06/01 03:41:11;;;;;;;13.95;7.75;;;;;;;;;;10159751;28;20129;-70
2021/06/01 03:46:08;;;;;;;10.68;7.30;;;;;;;;;;10140618;28;20045;-75
2021/06/01 03:51:04;;;;;;;11.25;7.13;;;;;;;;;;10158586;28;20519;-74
2021/06/01 03:56:00;;;;;;;12.73;7.65;;;;;;;;;;10162607;28;20080;-75
2021/06/01 04:00:57;;;;;;;12.93;7.35;;;;;;;;;;10161001;28;20047;-69
2021/06/01 04:05:53;;;;;;;10.55;7.38;;;;;;;;;;10156778;28;20058;-69
2021/06/01 04:10:49;;;;;;;12.02;7.65;;;;;;;;;;10132307;28;20096;-70
2021/06/01 04:15:46;;;;;;;11.82;7.35;;;;;;;;;;10139641;28;20038;-71
2021/06/01 04:20:42;;;;;;;12.15;7.97;;;;;;;;;;10133452;28;20047;-70
2021/06/01 04:25:39;;;;;;;13.73;7.30;;;;;;;;;;10138333;28;20043;-69
2021/06/01 04:30:35;;;;;;;12.80;7.68;;;;;;;;;;10132546;28;20053;-68
2021/06/01 04:35:32;;;;;;;12.80;8.45;;;;;;;;;;10133289;28;20101;-71
2021/06/01 04:40:28;;;;;;;11.18;7.75;;;;;;;;;;10135799;28;20053;-71
2021/06/01 04:45:25;;;;;;;11.45;7.38;;;;;;;;;;10164844;28;20057;-71
2021/06/01 04:50:22;;;;;;;13.77;8.38;;;;;;;;;;10145253;28;21245;-72
2021/06/01 04:55:18;;;;;;;17.48;7.95;;;;;;;;;;10136413;28;20157;-69
2021/06/01 05:00:15;;;;;;;11.65;8.25;;;;;;;;;;10138418;28;20061;-70
2021/06/01 05:05:11;;;;;;;11.93;7.78;;;;;;;;;;10154207;28;20046;-68
2021/06/01 05:10:08;;;;;;;13.65;7.45;;;;;;;;;;10141430;28;20129;-68
2021/06/01 05:15:05;;;;;;;13.93;8.43;;;;;;;;;;10148285;28;20546;-69
2021/06/01 05:20:01;;;;;;;13.85;8.50;;;;;;;;;;10148038;28;20092;-68
2021/06/01 05:24:57;;;;;;;12.20;8.02;;;;;;;;;;10142138;28;20508;-67
2021/06/01 05:29:57;;;;;;;12.48;8.63;;;;;;;;;;10137289;28;20141;-69
2021/06/01 05:35:05;;;;;;;11.55;7.68;;;;;;;;;;10138108;28;20051;-68
2021/06/01 05:40:02;;;;;;;10.85;7.70;;;;;;;;;;10139399;28;20121;-69
2021/06/01 05:44:58;;;;;;;14.95;7.80;;;;;;;;;;10131262;28;20118;-68
2021/06/01 05:49:54;;;;;;;12.40;7.53;;;;;;;;;;10154669;28;20104;-68
2021/06/01 05:54:51;;;;;;;13.98;8.00;;;;;;;;;;10140673;28;20034;-69
2021/06/01 05:59:47;;;;;;;10.75;7.13;;;;;;;;;;10135329;28;20116;-68
2021/06/01 06:04:44;;;;;;;12.07;8.93;;;;;;;;;;10135112;28;20169;-69
2021/06/01 06:09:40;;;;;;;11.50;6.80;;;;;;;;;;10137372;28;20083;-68
2021/06/01 06:14:36;;;;;;;13.35;6.95;;;;;;;;;;10136106;28;20039;-68
2021/06/01 06:19:38;;;;;;;12.90;6.30;;;;;;;;;;10146294;28;20070;-69
2021/06/01 06:24:36;;;;;;;15.05;5.95;;;;;;;;;;10135703;28;20043;-69
2021/06/01 06:29:32;;;;;;;12.75;5.13;;;;;;;;;;10134823;28;20038;-69
2021/06/01 06:34:29;;;;;;;9.23;4.60;;;;;;;;;;10135124;28;20043;-68
2021/06/01 06:39:25;;;;;;;11.32;4.85;;;;;;;;;;10160692;28;20042;-68
2021/06/01 06:44:22;;;;;;;8.63;4.07;;;;;;;;;;10170122;28;20500;-69
2021/06/01 06:49:18;;;;;;;8.60;3.75;;;;;;;;;;10145756;28;20157;-68
2021/06/01 06:54:15;;;;;;;7.00;2.70;;;;;;;;;;10140447;28;20838;-68
2021/06/01 06:59:11;;;;;;;6.72;2.42;;;;;;;;;;10133706;28;20088;-68
2021/06/01 07:04:08;;;;;;;6.30;2.90;;;;;;;;;;10129921;28;20042;-69
2021/06/01 07:09:05;;;;;;;5.88;2.28;;;;;;;;;;10142329;28;20117;-68
2021/06/01 07:14:05;;;;;;;5.03;2.50;;;;;;;;;;10137712;28;20038;-68
2021/06/01 07:19:02;;;;;;;5.25;2.20;;;;;;;;;;10147301;28;20050;-68
2021/06/01 07:23:58;;;;;;;3.95;1.55;;;;;;;;;;10136050;28;20520;-68
2021/06/01 07:28:55;;;;;;;5.47;2.22;;;;;;;;;;10129496;28;20560;-68
2021/06/01 07:33:52;;;;;;;4.65;2.03;;;;;;;;;;10128031;28;20125;-69
2021/06/01 07:38:48;;;;;;;6.32;1.85;;;;;;;;;;10142622;28;20078;-68
2021/06/01 07:43:45;;;;;;;4.43;1.83;;;;;;;;;;10134991;28;20142;-69
2021/06/01 07:48:41;;;;;;;4.40;2.10;;;;;;;;;;10128747;28;20042;-68
2021/06/01 07:53:41;;;;;;;6.47;2.15;;;;;;;;;;10139211;28;20578;-68
2021/06/01 07:58:37;;;;;;;4.90;1.98;;;;;;;;;;10145378;28;20124;-67
2021/06/01 08:03:34;;;;;;;4.93;2.08;;;;;;;;;;10137467;28;20076;-68
2021/06/01 08:08:30;;;;;;;3.70;1.75;;;;;;;;;;10146459;28;20046;-68
2021/06/01 08:13:27;;;;;;;5.22;2.00;;;;;;;;;;10147093;28;20042;-69
2021/06/01 08:18:26;;;;;;;4.53;2.33;;;;;;;;;;10153131;28;20069;-69
2021/06/01 08:23:23;;;;;;;5.93;2.00;;;;;;;;;;10162137;28;20096;-68
2021/06/01 08:28:19;;;;;;;5.65;2.13;;;;;;;;;;10147602;28;20556;-68
2021/06/01 08:33:15;;;;;;;4.75;2.47;;;;;;;;;;10153827;28;20043;-68
2021/06/01 08:38:12;;;;;;;7.30;2.35;;;;;;;;;;10147054;28;20042;-68
2021/06/01 08:43:23;;;;;;;6.78;2.25;;;;;;;;;;10134532;28;20483;-68
2021/06/01 08:48:20;;;;;;;5.20;2.03;;;;;;;;;;10152965;28;20066;-68
2021/06/01 08:53:17;;;;;;;5.95;2.13;;;;;;;;;;10155449;28;20415;-69
2021/06/01 08:58:14;;;;;;;6.50;2.60;;;;;;;;;;10152368;28;20132;-69
2021/06/01 09:03:13;;;;;;;6.78;2.40;;;;;;;;;;10166487;28;20073;-68
2021/06/01 09:08:11;;;;;;;7.10;2.70;;;;;;;;;;10154266;28;20043;-68
2021/06/01 09:23:58;;;;;;;8.93;3.13;;;;;;;;;;10139428;28;20134;-68
2021/06/01 09:28:58;;;;;;;6.70;2.40;;;;;;;;;;10126973;28;20575;-67
2021/06/01 09:33:55;;;;;;;5.72;2.47;;;;;;;;;;10131613;28;20062;-67
2021/06/01 09:38:51;;;;;;;6.35;2.58;;;;;;;;;;10128700;28;20566;-68
2021/06/01 09:44:08;;;;;;;8.43;2.90;;;;;;;;;;10134876;28;20074;-67
2021/06/01 09:49:13;;;;;;;6.55;2.53;;;;;;;;;;10139928;28;20097;-68
2021/06/01 09:54:38;;;;;;;6.70;3.33;;;;;;;;;;10141814;28;20033;-67
2021/06/01 09:59:35;;;;;;;7.50;2.95;;;;;;;;;;10138276;28;20078;-67
2021/06/01 10:04:31;;;;;;;4.75;2.70;;;;;;;;;;10154178;28;20468;-67
2021/06/01 10:09:42;;;;;;;7.50;3.83;;;;;;;;;;10145444;28;20042;-67
2021/06/01 10:14:38;;;;;;;7.35;3.00;;;;;;;;;;10142561;28;20073;-67
2021/06/01 10:19:50;;;;;;;6.15;2.60;;;;;;;;;;10121918;28;20045;-67
2021/06/01 10:24:46;;;;;;;6.47;3.35;;;;;;;;;;10135473;28;20050;-67
2021/06/01 10:29:43;;;;;;;7.18;3.13;;;;;;;;;;10128916;28;20043;-68
2021/06/01 10:34:39;;;;;;;10.63;4.20;;;;;;;;;;10130741;28;20129;-68
2021/06/01 10:50:25;;;;;;;6.72;3.00;;;;;;;;;;10138998;28;20079;-67
2021/06/01 10:55:21;;;;;;;6.78;3.15;;;;;;;;;;10142623;28;20476;-68
2021/06/01 11:05:54;;;;;;;5.15;3.42;;;;;;;;;;10046264;28;20817;-68
2021/06/01 11:10:50;;;;;;;7.25;3.30;;;;;;;;;;10135767;28;20501;-64
2021/06/01 11:15:53;;;;;;;8.88;4.15;;;;;;;;;;10126085;28;20074;-64
2021/06/01 11:21:05;;;;;;;7.75;2.92;;;;;;;;;;10145535;28;20084;-65
2021/06/01 11:36:18;;;;;;;10.15;3.90;;;;;;;;;;10144464;28;20085;-64
2021/06/01 11:51:49;;;;;;;8.15;3.17;;;;;;;;;;10130724;28;20047;-65
2021/06/01 12:12:44;;;;;;;4.40;2.30;;;;;;;;;;10138368;28;20131;-66
2021/06/01 12:17:46;;;;;;;8.68;3.50;;;;;;;;;;10157150;28;20168;-66
2021/06/01 12:22:42;;;;;;;8.07;3.28;;;;;;;;;;10137969;28;20051;-66
2021/06/01 12:30:54;;;;;;;7.55;3.42;;;;;;;;;;10161387;28;20073;-66
2021/06/01 12:33:10;;;;;;;5.55;2.92;;;;;;;;;;10141571;28;20070;-66
2021/06/01 12:43:35;;;;;;;3.92;2.17;;;;;;;;;;10132689;28;20487;-66
2021/06/01 13:20:51;;;;;;;5.75;3.10;;;;;;;;;;10158464;28;20038;-67
2021/06/01 13:47:01;;;;;;;4.05;1.95;;;;;;;;;;10131497;28;20480;-66
2021/06/01 13:52:08;;;;;;;4.38;2.53;;;;;;;;;;10150454;28;20069;-64
2021/06/01 14:55:11;;;;;;;5.40;1.85;;;;;;;;;;10155383;28;20046;-65
2021/06/01 15:10:56;;;;;;;3.83;1.77;;;;;;;;;;10155126;28;20678;-64
2021/06/01 16:13:38;;;;;;;5.00;1.23;;;;;;;;;;10127929;28;20391;-69
2021/06/01 17:05:49;;;;;;;3.53;0.95;;;;;;;;;;10126173;28;20069;-68
2021/06/01 17:11:04;;;;;;;5.40;0.75;;;;;;;;;;10137703;28;20121;-69
2021/06/01 17:16:00;;;;;;;3.97;0.90;;;;;;;;;;10136716;28;20137;-70
2021/06/01 17:31:54;;;;;;;4.10;1.00;;;;;;;;;;10134167;28;20046;-67
2021/06/01 17:36:51;;;;;;;2.90;0.80;;;;;;;;;;10130175;28;20093;-67
2021/06/01 17:41:48;;;;;;;3.25;0.68;;;;;;;;;;10130545;28;20157;-67
2021/06/01 17:46:46;;;;;;;4.13;0.60;;;;;;;;;;10132107;28;20165;-67
2021/06/01 17:51:45;;;;;;;2.72;0.70;;;;;;;;;;10127598;28;20519;-67
2021/06/01 17:56:42;;;;;;;2.85;0.98;;;;;;;;;;10136840;28;20465;-66
2021/06/01 18:01:39;;;;;;;3.67;0.80;;;;;;;;;;10146124;28;20481;-67
2021/06/01 18:06:40;;;;;;;2.55;0.70;;;;;;;;;;10142661;28;20408;-69
2021/06/01 18:11:55;;;;;;;4.35;0.93;;;;;;;;;;10144360;28;20096;-68
2021/06/01 19:51:52;;;;;;;5.68;1.83;;;;;;;;;;10139036;28;20410;-66
2021/06/01 19:56:49;;;;;;;3.92;2.30;;;;;;;;;;10141381;28;20096;-65
2021/06/01 20:01:46;;;;;;;3.75;2.13;;;;;;;;;;10142619;28;20468;-64
2021/06/01 20:06:44;;;;;;;4.55;2.35;;;;;;;;;;10159141;28;20046;-68
2021/06/01 20:11:41;;;;;;;5.57;2.25;;;;;;;;;;10149165;28;20042;-72
2021/06/01 20:16:39;;;;;;;4.82;2.28;;;;;;;;;;10126843;28;20046;-73
2021/06/01 20:21:37;;;;;;;3.55;1.95;;;;;;;;;;10127056;28;20047;-70
2021/06/01 20:26:33;;;;;;;6.60;2.83;;;;;;;;;;10113635;28;20070;-71
2021/06/01 20:31:35;;;;;;;5.75;2.72;;;;;;;;;;10131100;28;20066;-70
2021/06/01 20:36:31;;;;;;;6.30;2.95;;;;;;;;;;10134781;28;20117;-68
2021/06/01 20:41:28;;;;;;;4.97;2.45;;;;;;;;;;10131084;28;20130;-71
2021/06/01 20:46:25;;;;;;;6.07;2.30;;;;;;;;;;10134234;28;20042;-70
2021/06/01 20:51:24;;;;;;;6.30;2.60;;;;;;;;;;10128187;28;20133;-68
2021/06/01 20:56:27;;;;;;;5.40;2.17;;;;;;;;;;10135673;28;20519;-71
2021/06/01 21:01:26;;;;;;;7.15;2.60;;;;;;;;;;10144337;28;20043;-72
2021/06/01 21:06:23;;;;;;;6.88;2.70;;;;;;;;;;10144408;28;20054;-72
2021/06/01 21:11:20;;;;;;;7.13;2.15;;;;;;;;;;10139857;28;20042;-70
2021/06/01 21:16:17;;;;;;;5.38;2.53;;;;;;;;;;10145297;28;20049;-68
2021/06/01 21:21:14;;;;;;;6.18;3.20;;;;;;;;;;10138083;28;20058;-72
2021/06/01 21:26:10;;;;;;;7.57;3.40;;;;;;;;;;10161211;28;20046;-73
2021/06/01 21:31:07;;;;;;;8.77;3.90;;;;;;;;;;10161666;28;20105;-73
2021/06/01 21:36:05;;;;;;;6.65;3.88;;;;;;;;;;10147953;28;20477;-73
2021/06/01 21:41:02;;;;;;;6.68;3.83;;;;;;;;;;10169836;28;20142;-73
2021/06/01 21:46:01;;;;;;;6.82;4.70;;;;;;;;;;10157446;28;20054;-72
2021/06/01 21:50:57;;;;;;;9.60;5.03;;;;;;;;;;10164920;28;20062;-73
2021/06/01 21:55:54;;;;;;;9.38;5.35;;;;;;;;;;10168971;28;20107;-73
2021/06/01 22:00:51;;;;;;;9.60;5.35;;;;;;;;;;10160848;28;20516;-72
2021/06/01 22:05:48;;;;;;;11.95;6.68;;;;;;;;;;10160749;28;20042;-72
2021/06/01 22:10:47;;;;;;;8.02;4.97;;;;;;;;;;10166055;28;20074;-73
2021/06/01 22:15:43;;;;;;;8.35;5.00;;;;;;;;;;10172552;28;20046;-70
2021/06/01 22:20:41;;;;;;;11.55;5.10;;;;;;;;;;10160308;28;20137;-70
2021/06/01 22:25:37;;;;;;;8.77;4.40;;;;;;;;;;10165693;28;20084;-69
2021/06/01 22:30:33;;;;;;;9.60;4.13;;;;;;;;;;10158766;28;20105;-71
2021/06/01 22:35:30;;;;;;;7.30;4.72;;;;;;;;;;10171381;28;20046;-70
2021/06/01 22:40:26;;;;;;;6.05;3.63;;;;;;;;;;10160403;28;20057;-72
2021/06/01 22:45:23;;;;;;;7.90;3.78;;;;;;;;;;10165082;28;20104;-72
2021/06/01 22:50:20;;;;;;;5.25;3.00;;;;;;;;;;10159094;28;20037;-71
2021/06/01 22:55:17;;;;;;;5.82;2.50;;;;;;;;;;10168422;28;20125;-72
2021/06/01 23:00:14;;;;;;;6.18;2.05;;;;;;;;;;10171487;28;20088;-73
2021/06/01 23:05:11;;;;;;;4.50;1.77;;;;;;;;;;10155333;28;20069;-72
2021/06/01 23:10:08;;;;;;;3.85;1.60;;;;;;;;;;10164921;28;20086;-71
2021/06/01 23:15:05;;;;;;;6.57;1.85;;;;;;;;;;10156068;28;20097;-73
2021/06/01 23:20:03;;;;;;;4.30;1.40;;;;;;;;;;10150138;28;20050;-72
2021/06/01 23:25:01;;;;;;;6.63;2.03;;;;;;;;;;10151894;28;20046;-71
2021/06/01 23:29:58;;;;;;;4.57;1.33;;;;;;;;;;10146604;28;20061;-71
2021/06/01 23:34:54;;;;;;;2.35;0.98;;;;;;;;;;10149304;28;20046;-72
2021/06/01 23:39:56;;;;;;;2.55;1.00;;;;;;;;;;10143977;28;20078;-72
2021/06/01 23:44:53;;;;;;;2.90;1.13;;;;;;;;;;10147253;28;20073;-72
2021/06/01 23:49:53;;;;;;;3.15;1.10;;;;;;;;;;10145003;28;20145;-70
2021/06/01 23:54:50;;;;;;;1.88;0.82;;;;;;;;;;10152573;28;20050;-69
2021/06/01 23:59:46;;;;;;;4.63;1.42;;;;;;;;;;10153443;28;20050;-73
